Time;durP1;ratioP1;P1;durP2;ratioP2;P2;SDS_P1;SDS_P2;PMS_P1;PMS_P2;Temp;Humidity;BMP_temperature;BMP_pressure;BME280_temperature;BME280_humidity;BME280_pressure;Samples;Min_cycle;Max_cycle;Signal;HPM_P1;HPM_P2
2023/08/07 00:00:50;;;;;;;15.48;5.20;;;;;;;24.41;51.84;98162.31;2087658;28;20044;-50
2023/08/07 00:01:52;;;;;;;18.63;5.93;;;;;;;24.35;51.86;98159.78;2086592;28;20049;-48
2023/08/07 00:02:53;;;;;;;20.23;4.40;;;;;;;24.34;51.79;98163.59;2085711;28;20053;-48
2023/08/07 00:03:54;;;;;;;16.50;4.68;;;;;;;24.33;51.84;98159.25;2088361;28;20135;-50
2023/08/07 00:04:57;;;;;;;17.23;4.18;;;;;;;24.31;52.05;98164.91;2083388;28;20898;-49
2023/08/07 00:05:59;;;;;;;24.63;6.18;;;;;;;24.26;52.40;98162.13;2088769;28;20713;-49
2023/08/07 00:07:00;;;;;;;14.18;3.67;;;;;;;24.25;52.34;98169.44;2087453;28;20541;-49
2023/08/07 00:08:02;;;;;;;18.25;4.00;;;;;;;24.24;52.31;98165.09;2087832;28;20050;-52
2023/08/07 00:09:03;;;;;;;22.45;5.03;;;;;;;24.21;52.42;98159.34;2087990;28;20045;-49
2023/08/07 00:10:05;;;;;;;19.02;4.40;;;;;;;24.19;52.17;98164.22;2088151;28;20151;-52
2023/08/07 00:11:07;;;;;;;18.15;4.35;;;;;;;24.16;52.18;98157.41;2086300;28;20076;-49
2023/08/07 00:12:09;;;;;;;16.38;3.85;;;;;;;24.17;52.65;98155.50;2088605;28;20036;-49
2023/08/07 00:13:10;;;;;;;17.23;6.55;;;;;;;24.16;52.85;98162.00;2088331;28;20300;-49
2023/08/07 00:14:12;;;;;;;13.60;4.00;;;;;;;24.19;52.33;98154.19;2087703;28;20049;-48
2023/08/07 00:15:13;;;;;;;17.85;3.92;;;;;;;24.18;52.53;98157.97;2089272;28;20567;-48
2023/08/07 00:16:17;;;;;;;14.43;5.03;;;;;;;24.20;52.21;98155.00;2088549;28;20062;-49
2023/08/07 00:17:17;;;;;;;11.30;4.72;;;;;;;24.21;52.47;98154.78;2087650;28;20084;-49
2023/08/07 00:18:19;;;;;;;17.15;4.57;;;;;;;24.21;52.34;98152.06;2088731;28;20048;-49
2023/08/07 00:19:20;;;;;;;13.52;5.05;;;;;;;24.21;52.52;98154.78;2086853;28;20589;-48
2023/08/07 00:20:22;;;;;;;18.30;3.63;;;;;;;24.21;52.30;98149.34;2089208;28;20047;-50
2023/08/07 00:21:23;;;;;;;20.63;5.50;;;;;;;24.20;52.23;98153.13;2083705;28;20519;-50
2023/08/07 00:22:26;;;;;;;20.08;4.65;;;;;;;24.20;52.51;98153.13;2084171;28;20040;-48
2023/08/07 00:23:27;;;;;;;19.42;4.68;;;;;;;24.22;51.97;98144.75;2089361;28;20140;-48
2023/08/07 00:24:28;;;;;;;22.77;5.35;;;;;;;24.20;52.19;98144.97;2085100;28;20056;-48
2023/08/07 00:25:29;;;;;;;21.30;4.60;;;;;;;24.19;52.22;98148.78;2087143;28;20086;-48
2023/08/07 00:26:32;;;;;;;12.48;3.53;;;;;;;24.20;52.14;98142.28;2087670;28;20049;-49
2023/08/07 00:27:32;;;;;;;18.20;5.18;;;;;;;24.23;51.89;98144.47;2085655;28;20068;-49
2023/08/07 00:28:33;;;;;;;19.85;4.65;;;;;;;24.23;51.99;98149.91;2089028;28;20041;-48
2023/08/07 00:29:35;;;;;;;12.40;4.85;;;;;;;24.26;52.25;98148.56;2086843;28;20048;-49
2023/08/07 00:30:36;;;;;;;19.05;4.68;;;;;;;24.27;52.23;98147.53;2088841;28;20057;-49
2023/08/07 00:31:39;;;;;;;14.63;4.50;;;;;;;24.27;52.15;98145.63;2086674;28;20164;-50
2023/08/07 00:32:40;;;;;;;16.60;4.85;;;;;;;24.26;51.80;98145.88;2086036;28;20051;-49
2023/08/07 00:33:42;;;;;;;16.80;4.85;;;;;;;24.27;52.11;98150.22;2085603;28;20055;-48
2023/08/07 00:34:43;;;;;;;16.05;5.43;;;;;;;24.29;51.88;98154.34;2088130;28;20095;-51
2023/08/07 00:35:45;;;;;;;19.33;4.88;;;;;;;24.29;51.75;98146.19;2086228;28;20083;-49
2023/08/07 00:36:46;;;;;;;12.65;4.20;;;;;;;24.34;51.81;98144.59;2087969;28;20044;-51
2023/08/07 00:37:48;;;;;;;16.48;5.22;;;;;;;24.37;51.80;98144.91;2086650;28;20426;-49
2023/08/07 00:38:50;;;;;;;14.30;3.50;;;;;;;24.39;51.86;98141.97;2083539;28;20068;-49
2023/08/07 00:39:52;;;;;;;15.52;4.55;;;;;;;24.38;51.52;98141.16;2088282;28;20100;-50
2023/08/07 00:40:53;;;;;;;18.63;5.25;;;;;;;24.41;51.84;98134.41;2085104;28;20502;-49
2023/08/07 00:41:55;;;;;;;18.48;4.80;;;;;;;24.43;51.49;98137.66;2086315;28;20041;-53
2023/08/07 00:42:56;;;;;;;17.65;3.83;;;;;;;24.41;51.58;98134.41;2086841;28;20434;-49
2023/08/07 00:43:57;;;;;;;15.95;4.25;;;;;;;24.42;51.75;98130.59;2087133;28;20044;-49
2023/08/07 00:44:58;;;;;;;15.77;5.07;;;;;;;24.43;51.47;98133.13;2087004;28;20481;-50
2023/08/07 00:45:59;;;;;;;24.65;4.22;;;;;;;24.45;51.34;98135.56;2085638;28;20048;-49
2023/08/07 00:47:03;;;;;;;20.88;3.67;;;;;;;24.47;51.47;98128.81;2087942;28;20135;-52
2023/08/07 00:48:05;;;;;;;11.60;3.05;;;;;;;24.49;51.38;98142.94;2086275;28;20045;-49
2023/08/07 00:49:08;;;;;;;16.70;4.28;;;;;;;24.52;51.34;98126.16;2087045;28;20056;-52
2023/08/07 00:50:10;;;;;;;15.40;5.38;;;;;;;24.54;51.46;98134.03;2086013;28;20105;-50
2023/08/07 00:51:12;;;;;;;15.75;4.65;;;;;;;24.57;51.52;98124.56;2087829;28;20049;-51
2023/08/07 00:52:13;;;;;;;22.98;4.22;;;;;;;24.55;51.44;98132.16;2087574;28;20427;-49
2023/08/07 00:53:14;;;;;;;11.13;3.65;;;;;;;24.56;51.09;98131.88;2086366;28;20139;-49
2023/08/07 00:54:20;;;;;;;19.20;3.65;;;;;;;24.58;51.44;98131.63;2084484;28;20334;-48
2023/08/07 00:55:21;;;;;;;14.95;3.10;;;;;;;24.57;51.42;98125.38;2084610;28;20044;-49
2023/08/07 00:56:24;;;;;;;23.08;4.82;;;;;;;24.57;51.19;98128.09;2086812;28;20553;-49
2023/08/07 00:57:25;;;;;;;16.48;3.85;;;;;;;24.55;51.03;98130.25;2087320;28;20048;-49
2023/08/07 00:58:27;;;;;;;14.43;3.65;;;;;;;24.49;51.64;98125.84;2085754;28;20083;-49
2023/08/07 00:59:28;;;;;;;14.13;4.55;;;;;;;24.46;51.34;98123.63;2088707;28;20334;-48
2023/08/07 01:00:30;;;;;;;17.90;4.53;;;;;;;24.48;51.46;98125.00;2086718;28;20687;-48
2023/08/07 01:01:31;;;;;;;15.95;4.22;;;;;;;24.52;51.21;98125.34;2086946;28;20052;-50
2023/08/07 01:02:33;;;;;;;21.23;4.22;;;;;;;24.55;51.59;98119.41;2087854;28;20040;-50
2023/08/07 01:03:35;;;;;;;17.40;3.70;;;;;;;24.57;51.26;98111.00;2086765;28;20505;-51
2023/08/07 01:04:36;;;;;;;10.63;3.92;;;;;;;24.59;51.36;98115.09;2088360;28;20490;-49
2023/08/07 01:05:38;;;;;;;18.88;5.20;;;;;;;24.60;51.03;98116.75;2085702;28;20048;-51
2023/08/07 01:06:40;;;;;;;12.38;3.72;;;;;;;24.62;51.08;98119.19;2088092;28;20094;-52
2023/08/07 01:07:42;;;;;;;21.15;4.57;;;;;;;24.59;50.92;98120.53;2088621;28;20052;-51
2023/08/07 01:08:43;;;;;;;16.83;4.88;;;;;;;24.59;51.52;98117.81;2088701;28;20463;-51
2023/08/07 01:09:46;;;;;;;15.70;3.83;;;;;;;24.60;51.44;98113.19;2085792;28;20080;-49
2023/08/07 01:10:58;;;;;;;13.80;3.15;;;;;;;24.62;51.05;98117.28;2088920;28;20051;-50
2023/08/07 01:12:09;;;;;;;18.75;4.07;;;;;;;24.62;51.22;98119.19;2086201;28;20059;-49
2023/08/07 01:13:18;;;;;;;20.85;4.50;;;;;;;24.63;51.12;98118.97;2086486;28;20044;-48
2023/08/07 01:14:30;;;;;;;16.92;3.38;;;;;;;24.63;51.03;98120.84;2084435;28;20875;-47
2023/08/07 01:15:33;;;;;;;15.82;4.20;;;;;;;24.65;50.91;98122.22;2084878;28;20076;-48
2023/08/07 01:16:38;;;;;;;18.30;4.05;;;;;;;24.65;51.32;98119.50;2087074;28;20056;-51
2023/08/07 01:17:43;;;;;;;16.25;4.47;;;;;;;24.65;50.85;98122.22;2087472;28;20391;-49
2023/08/07 01:18:47;;;;;;;14.65;4.22;;;;;;;24.66;50.92;98121.16;2087272;28;20076;-49
2023/08/07 01:19:50;;;;;;;14.25;4.40;;;;;;;24.66;51.03;98121.16;2085977;28;20052;-48
2023/08/07 01:20:52;;;;;;;13.20;3.47;;;;;;;24.68;51.16;98124.44;2089121;28;20102;-48
2023/08/07 01:22:06;;;;;;;15.73;4.03;;;;;;;24.66;51.33;98126.56;2086420;28;20065;-49
2023/08/07 01:23:08;;;;;;;15.57;4.00;;;;;;;24.66;51.02;98120.34;2086813;28;20048;-50
2023/08/07 01:24:09;;;;;;;12.85;3.80;;;;;;;24.67;51.30;98128.19;2086885;28;20551;-48
2023/08/07 01:25:12;;;;;;;23.10;4.60;;;;;;;24.68;50.83;98124.44;2088557;28;20044;-50
2023/08/07 01:26:13;;;;;;;16.10;3.95;;;;;;;24.69;51.11;98123.34;2087450;28;20063;-50
2023/08/07 01:27:33;;;;;;;13.57;3.72;;;;;;;24.66;51.02;98123.06;2079488;28;20473;-48
2023/08/07 01:28:38;;;;;;;12.68;2.65;;;;;;;24.66;51.22;98120.34;2078124;28;20052;-50
2023/08/07 01:29:49;;;;;;;16.67;4.32;;;;;;;24.65;51.09;98121.41;2079289;28;20102;-51
2023/08/07 01:30:52;;;;;;;;;;;;;;;24.58;51.24;98118.91;2078729;28;20654;-49
2023/08/07 01:31:56;;;;;;;14.70;3.13;;;;;;;24.62;51.47;98120.00;2076956;28;20288;-48
2023/08/07 01:33:08;;;;;;;16.38;3.53;;;;;;;24.63;51.01;98123.56;2068554;28;20725;-48
2023/08/07 01:34:14;;;;;;;16.20;3.53;;;;;;;24.65;50.93;98118.69;2077225;28;20559;-49
2023/08/07 01:35:17;;;;;;;12.85;3.95;;;;;;;24.66;50.91;98121.16;2078154;28;20083;-49
2023/08/07 01:36:20;;;;;;;11.88;3.78;;;;;;;24.66;50.83;98121.16;2079441;28;20291;-49
2023/08/07 01:37:23;;;;;;;19.92;4.90;;;;;;;24.69;50.93;98123.34;2077565;28;20143;-49
2023/08/07 01:38:27;;;;;;;17.30;4.55;;;;;;;24.70;51.03;98119.56;2074166;28;20056;-50
2023/08/07 01:39:29;;;;;;;15.55;3.55;;;;;;;24.70;50.74;98118.75;2077835;28;20041;-48
2023/08/07 01:40:31;;;;;;;12.98;3.25;;;;;;;24.69;50.89;98115.22;2075515;28;20064;-49
2023/08/07 01:41:33;;;;;;;19.25;4.15;;;;;;;24.71;50.94;98123.91;2076506;28;20076;-49
2023/08/07 01:42:35;;;;;;;18.67;4.82;;;;;;;24.71;50.84;98113.06;2076967;28;20049;-48
2023/08/07 01:43:36;;;;;;;12.75;3.20;;;;;;;24.71;50.99;98113.06;2075200;28;20052;-49
2023/08/07 01:44:38;;;;;;;15.35;4.63;;;;;;;24.72;51.19;98114.69;2074328;28;20048;-52
2023/08/07 01:45:39;;;;;;;16.63;3.70;;;;;;;24.73;50.70;98110.09;2075094;28;20162;-50
2023/08/07 01:46:41;;;;;;;13.20;3.58;;;;;;;24.71;51.19;98113.06;2078856;28;20060;-50
2023/08/07 01:47:42;;;;;;;10.63;3.67;;;;;;;24.71;50.82;98113.06;2079084;28;20057;-50
2023/08/07 01:48:44;;;;;;;13.13;4.03;;;;;;;24.71;51.03;98109.50;2075878;28;20080;-50
2023/08/07 01:49:45;;;;;;;11.48;3.47;;;;;;;24.71;50.89;98110.34;2077163;28;20045;-48
2023/08/07 01:50:47;;;;;;;13.63;4.15;;;;;;;24.71;50.88;98118.50;2079089;28;20140;-48
2023/08/07 01:51:48;;;;;;;17.52;4.72;;;;;;;24.69;50.90;98117.13;2077887;28;20601;-49
2023/08/07 01:52:52;;;;;;;14.35;4.60;;;;;;;24.70;50.91;98121.44;2075976;28;20045;-49
2023/08/07 01:53:52;;;;;;;14.30;4.05;;;;;;;24.69;50.79;98122.53;2083299;28;20068;-50
2023/08/07 01:54:54;;;;;;;18.67;4.18;;;;;;;24.67;50.84;98125.50;2087300;28;20045;-50
2023/08/07 01:55:55;;;;;;;12.25;3.45;;;;;;;24.65;51.00;98130.34;2085229;28;20052;-48
2023/08/07 01:56:57;;;;;;;13.65;4.25;;;;;;;24.65;51.08;98130.34;2084343;28;20383;-51
2023/08/07 01:57:58;;;;;;;15.35;4.90;;;;;;;24.65;51.27;98135.75;2083100;28;20063;-50
2023/08/07 01:58:59;;;;;;;22.48;4.55;;;;;;;24.66;51.34;98134.72;2085293;28;20318;-49
2023/08/07 02:00:00;;;;;;;6.85;3.70;;;;;;;24.63;50.88;98137.94;2083290;28;20075;-49
2023/08/07 02:01:02;;;;;;;17.70;4.10;;;;;;;24.64;51.31;98131.44;2085596;28;20049;-49
2023/08/07 02:02:04;;;;;;;16.60;4.03;;;;;;;24.62;51.12;98133.56;2086341;28;20055;-50
2023/08/07 02:03:05;;;;;;;17.85;4.28;;;;;;;24.61;50.98;98129.22;2084321;28;20068;-48
2023/08/07 02:04:06;;;;;;;22.20;4.25;;;;;;;24.63;50.98;98132.50;2079276;28;20045;-49
2023/08/07 02:05:08;;;;;;;16.60;3.78;;;;;;;24.65;51.32;98134.94;2082401;28;20578;-49
2023/08/07 02:06:09;;;;;;;23.40;5.78;;;;;;;24.67;50.76;98141.75;2083716;28;20052;-50
2023/08/07 02:07:11;;;;;;;17.77;3.97;;;;;;;24.67;51.36;98133.63;2085446;28;20324;-49
2023/08/07 02:08:14;;;;;;;15.68;3.53;;;;;;;24.66;50.91;98136.59;2086781;28;20132;-50
2023/08/07 02:09:16;;;;;;;14.73;3.53;;;;;;;24.63;50.98;98135.22;2084847;28;20060;-49
2023/08/07 02:10:16;;;;;;;15.30;4.00;;;;;;;24.65;51.23;98140.38;2084006;28;20044;-51
2023/08/07 02:11:18;;;;;;;19.00;4.50;;;;;;;24.65;51.35;98135.75;2082550;28;20044;-49
2023/08/07 02:12:19;;;;;;;10.23;4.60;;;;;;;24.62;50.84;98141.69;2086237;28;20423;-49
2023/08/07 02:13:21;;;;;;;14.43;5.35;;;;;;;24.60;51.01;98137.59;2085077;28;20044;-48
2023/08/07 02:14:22;;;;;;;16.35;4.68;;;;;;;24.57;51.41;98138.94;2084682;28;20040;-48
2023/08/07 02:15:23;;;;;;;22.88;4.32;;;;;;;24.58;51.47;98139.78;2082211;28;20646;-48
2023/08/07 02:16:24;;;;;;;13.98;4.18;;;;;;;24.57;51.15;98144.34;2080805;28;20415;-48
2023/08/07 02:17:27;;;;;;;14.38;4.55;;;;;;;24.57;51.01;98140.81;2082982;28;20057;-55
2023/08/07 02:18:27;;;;;;;24.15;4.60;;;;;;;24.57;51.04;98133.50;2082989;28;20095;-50
2023/08/07 02:19:30;;;;;;;13.15;4.53;;;;;;;24.60;51.04;98141.16;2083661;28;20415;-49
2023/08/07 02:20:31;;;;;;;12.93;3.47;;;;;;;24.61;51.20;98133.84;2084593;28;20220;-48
2023/08/07 02:21:32;;;;;;;13.75;3.47;;;;;;;24.60;50.98;98130.31;2082388;28;20052;-48
2023/08/07 02:22:34;;;;;;;15.43;4.20;;;;;;;24.56;51.17;98137.31;2085926;28;20536;-50
2023/08/07 02:23:36;;;;;;;20.30;4.70;;;;;;;24.59;51.39;98130.56;2083708;28;20080;-50
2023/08/07 02:24:38;;;;;;;14.45;5.15;;;;;;;24.58;51.02;98126.22;2084270;28;20071;-48
2023/08/07 02:25:39;;;;;;;16.02;3.90;;;;;;;24.57;51.29;98138.13;2085395;28;20569;-51
2023/08/07 02:26:41;;;;;;;16.45;4.32;;;;;;;24.56;51.39;98140.00;2082825;28;20110;-51
2023/08/07 02:27:42;;;;;;;21.88;5.35;;;;;;;24.56;51.03;98131.06;2085217;28;20093;-50
2023/08/07 02:28:44;;;;;;;20.08;4.60;;;;;;;24.56;51.17;98136.50;2084478;28;20856;-49
2023/08/07 02:29:45;;;;;;;16.60;4.75;;;;;;;24.55;51.42;98127.53;2082191;28;20041;-49
2023/08/07 02:30:48;;;;;;;15.10;5.25;;;;;;;24.56;51.31;98137.31;2081899;28;20147;-49
2023/08/07 02:31:49;;;;;;;16.77;3.70;;;;;;;24.58;51.01;98128.94;2085628;28;20498;-48
2023/08/07 02:32:51;;;;;;;13.38;3.58;;;;;;;24.56;51.34;98129.16;2086289;28;20048;-49
2023/08/07 02:33:52;;;;;;;12.68;3.10;;;;;;;24.55;51.34;98124.03;2084039;28;20561;-50
2023/08/07 02:34:54;;;;;;;16.63;4.97;;;;;;;24.56;51.52;98128.34;2087315;28;20510;-52
2023/08/07 02:35:54;;;;;;;15.15;3.40;;;;;;;24.57;51.03;98127.28;2086891;28;20045;-48
2023/08/07 02:36:56;;;;;;;16.15;4.20;;;;;;;24.55;51.01;98135.69;2084119;28;20048;-50
2023/08/07 02:37:57;;;;;;;9.90;3.63;;;;;;;24.56;51.16;98128.34;2085866;28;20036;-49
2023/08/07 02:39:00;;;;;;;14.88;4.30;;;;;;;24.56;51.09;98129.16;2084290;28;20048;-51
2023/08/07 02:40:01;;;;;;;11.68;3.63;;;;;;;24.55;51.45;98130.25;2086286;28;20557;-49
2023/08/07 02:41:03;;;;;;;18.67;4.20;;;;;;;24.59;51.24;98134.06;2086606;28;20049;-52
2023/08/07 02:42:04;;;;;;;14.52;3.88;;;;;;;24.60;51.06;98135.72;2087028;28;20577;-47
2023/08/07 02:43:06;;;;;;;24.42;3.90;;;;;;;24.59;51.39;98125.94;2085666;28;20044;-50
2023/08/07 02:44:07;;;;;;;21.98;5.60;;;;;;;24.61;51.18;98129.22;2083840;28;20418;-50
2023/08/07 02:45:09;;;;;;;17.75;3.67;;;;;;;24.63;51.33;98131.69;2086745;28;20053;-49
2023/08/07 02:46:10;;;;;;;13.15;3.45;;;;;;;24.63;51.09;98128.97;2086108;28;20360;-50
2023/08/07 02:47:12;;;;;;;17.20;4.13;;;;;;;24.62;51.34;98133.56;2086498;28;20051;-50
2023/08/07 02:48:13;;;;;;;15.30;4.63;;;;;;;24.62;51.04;98130.84;2086280;28;20747;-49
2023/08/07 02:49:14;;;;;;;13.43;3.92;;;;;;;24.62;51.12;98130.84;2085316;28;20056;-49
2023/08/07 02:50:16;;;;;;;15.10;4.70;;;;;;;24.63;50.90;98129.81;2087626;28;20612;-49
2023/08/07 02:51:16;;;;;;;15.88;4.65;;;;;;;24.60;50.97;98126.75;2080956;28;20052;-49
2023/08/07 02:52:18;;;;;;;15.68;3.83;;;;;;;24.60;50.90;98137.59;2086005;28;21315;-50
2023/08/07 02:53:19;;;;;;;15.55;4.40;;;;;;;24.59;51.36;98131.38;2088101;28;20059;-48
2023/08/07 02:54:23;;;;;;;11.23;3.83;;;;;;;24.61;51.20;98137.38;2085955;28;20613;-49
2023/08/07 02:55:23;;;;;;;14.57;4.60;;;;;;;24.62;51.33;98136.28;2084822;28;20049;-48
2023/08/07 02:56:25;;;;;;;21.20;4.53;;;;;;;24.63;51.01;98139.84;2085383;28;20380;-48
2023/08/07 02:57:26;;;;;;;22.52;4.80;;;;;;;24.63;51.35;98135.22;2084089;28;20399;-49
2023/08/07 02:58:28;;;;;;;11.32;4.22;;;;;;;24.64;50.88;98138.75;2087475;28;20055;-49
2023/08/07 02:59:29;;;;;;;19.73;4.53;;;;;;;24.66;51.23;98147.44;2084248;28;20144;-51
2023/08/07 03:00:31;;;;;;;17.08;4.72;;;;;;;24.67;50.75;98151.78;2084490;28;20307;-49
2023/08/07 03:01:32;;;;;;;23.20;3.85;;;;;;;24.65;50.89;98141.19;2086642;28;20072;-49
2023/08/07 03:02:33;;;;;;;13.63;2.92;;;;;;;24.66;50.78;98147.44;2086630;28;20053;-50
2023/08/07 03:03:35;;;;;;;15.80;5.28;;;;;;;24.66;50.80;98144.75;2085085;28;20053;-48
2023/08/07 03:04:37;;;;;;;12.32;3.90;;;;;;;24.64;51.13;98144.97;2088467;28;20130;-49
2023/08/07 03:05:38;;;;;;;15.27;4.28;;;;;;;24.65;51.24;98137.66;2086876;28;20055;-51
2023/08/07 03:06:39;;;;;;;16.05;5.43;;;;;;;24.61;51.07;98139.25;2085682;28;20422;-49
2023/08/07 03:07:40;;;;;;;17.95;4.93;;;;;;;24.61;50.87;98145.50;2081109;28;20588;-50
2023/08/07 03:08:43;;;;;;;12.55;4.60;;;;;;;24.62;51.04;98141.69;2087939;28;20150;-50
2023/08/07 03:09:47;;;;;;;14.57;4.38;;;;;;;24.58;51.14;98146.00;2084856;28;20123;-50
2023/08/07 03:10:55;;;;;;;15.38;4.28;;;;;;;24.58;51.16;98139.78;2086625;28;20044;-49
2023/08/07 03:11:56;;;;;;;18.50;4.47;;;;;;;24.52;51.07;98144.31;2084931;28;20060;-50
2023/08/07 03:12:58;;;;;;;12.35;4.20;;;;;;;24.56;51.06;98148.16;2087142;28;20491;-50
2023/08/07 03:13:59;;;;;;;13.77;3.42;;;;;;;24.58;50.79;98148.72;2085577;28;20052;-50
2023/08/07 03:15:00;;;;;;;15.93;3.70;;;;;;;24.56;51.13;98150.84;2085638;28;20051;-50
2023/08/07 03:16:02;;;;;;;16.88;3.92;;;;;;;24.57;50.92;98152.50;2084910;28;20287;-50
2023/08/07 03:17:04;;;;;;;15.98;4.35;;;;;;;24.52;51.22;98149.75;2084931;28;20437;-53
2023/08/07 03:18:05;;;;;;;14.38;4.03;;;;;;;24.51;51.25;98150.78;2085506;28;20095;-51
2023/08/07 03:19:07;;;;;;;12.95;4.18;;;;;;;24.47;51.17;98155.09;2085447;28;20048;-51
2023/08/07 03:20:09;;;;;;;17.35;4.90;;;;;;;24.48;51.12;98151.31;2082773;28;20049;-52
2023/08/07 03:21:11;;;;;;;14.55;4.30;;;;;;;24.50;51.29;98146.47;2086711;28;20045;-49
2023/08/07 03:22:12;;;;;;;13.40;3.60;;;;;;;24.52;51.27;98155.16;2087452;28;20301;-50
2023/08/07 03:23:14;;;;;;;12.43;3.03;;;;;;;24.52;51.19;98163.31;2081457;28;20048;-50
2023/08/07 03:24:15;;;;;;;15.00;4.85;;;;;;;24.50;51.51;98165.44;2084569;28;20765;-48
2023/08/07 03:25:19;;;;;;;15.85;3.22;;;;;;;24.53;51.00;98162.22;2084898;28;20165;-48
2023/08/07 03:26:19;;;;;;;20.98;3.60;;;;;;;24.51;51.07;98162.44;2084471;28;20526;-52
2023/08/07 03:27:22;;;;;;;15.07;4.82;;;;;;;24.51;51.29;98165.16;2085452;28;20045;-50
2023/08/07 03:28:23;;;;;;;13.13;3.90;;;;;;;24.48;51.07;98167.56;2084827;28;20470;-49
2023/08/07 03:29:24;;;;;;;18.02;3.47;;;;;;;24.48;51.40;98171.09;2083989;28;20068;-51
2023/08/07 03:30:25;;;;;;;14.70;4.00;;;;;;;24.49;51.21;98169.22;2087110;28;20053;-52
2023/08/07 03:31:27;;;;;;;14.88;3.63;;;;;;;24.51;51.28;98164.34;2083305;28;20509;-48
2023/08/07 03:32:28;;;;;;;13.90;4.03;;;;;;;24.51;51.38;98159.75;2087577;28;20052;-51
2023/08/07 03:33:30;;;;;;;15.55;4.00;;;;;;;24.50;51.39;98163.53;2084862;28;20080;-48
2023/08/07 03:34:31;;;;;;;12.90;3.08;;;;;;;24.50;51.42;98162.72;2086407;28;20057;-50
2023/08/07 03:35:33;;;;;;;16.60;4.18;;;;;;;24.50;51.28;98162.72;2084867;28;20146;-48
2023/08/07 03:36:35;;;;;;;13.40;3.85;;;;;;;24.50;51.08;98171.66;2084300;28;20080;-50
2023/08/07 03:37:36;;;;;;;8.32;2.88;;;;;;;24.48;51.14;98168.38;2086423;28;20062;-51
2023/08/07 03:38:38;;;;;;;13.18;3.38;;;;;;;24.47;51.38;98169.47;2084762;28;20041;-51
2023/08/07 03:39:39;;;;;;;18.10;4.55;;;;;;;24.47;51.56;98166.75;2086999;28;20041;-49
2023/08/07 03:40:43;;;;;;;15.30;4.10;;;;;;;24.47;51.26;98169.47;2086599;28;20417;-50
2023/08/07 03:41:43;;;;;;;13.65;3.67;;;;;;;24.47;50.99;98168.66;2080303;28;20068;-49
2023/08/07 03:42:45;;;;;;;17.90;4.70;;;;;;;24.46;51.40;98165.13;2078252;28;20546;-50
2023/08/07 03:43:46;;;;;;;15.18;5.35;;;;;;;24.44;51.32;98164.56;2075216;28;20200;-49
2023/08/07 03:44:48;;;;;;;18.02;3.67;;;;;;;24.45;51.14;98170.78;2080205;28;20128;-50
2023/08/07 03:45:54;;;;;;;16.08;4.05;;;;;;;24.42;51.28;98165.84;2085913;28;20052;-52
2023/08/07 03:46:57;;;;;;;10.10;3.33;;;;;;;24.38;51.71;98164.72;2087060;28;20086;-51
2023/08/07 03:47:58;;;;;;;14.23;3.88;;;;;;;24.38;51.58;98162.84;2083927;28;20047;-49
2023/08/07 03:49:00;;;;;;;14.13;3.53;;;;;;;24.39;51.70;98166.34;2079600;28;20124;-48
2023/08/07 03:50:01;;;;;;;16.10;4.50;;;;;;;24.33;51.70;98164.66;2084636;28;20048;-50
2023/08/07 03:51:05;;;;;;;16.02;4.50;;;;;;;24.30;51.53;98161.38;2088937;28;20072;-48
2023/08/07 03:52:06;;;;;;;8.65;3.13;;;;;;;24.28;51.90;98163.50;2085409;28;20055;-51
2023/08/07 03:53:08;;;;;;;15.85;3.88;;;;;;;24.35;51.73;98167.91;2084267;28;20056;-48
2023/08/07 03:54:09;;;;;;;12.38;3.92;;;;;;;24.38;51.47;98167.44;2085384;28;20795;-48
2023/08/07 03:55:11;;;;;;;13.13;4.35;;;;;;;24.39;51.46;98167.16;2088022;28;20637;-49
2023/08/07 03:56:13;;;;;;;13.10;4.10;;;;;;;24.39;51.79;98163.66;2081947;28;20199;-49
2023/08/07 03:57:15;;;;;;;18.70;3.88;;;;;;;24.39;51.67;98164.47;2087572;28;20541;-49
2023/08/07 03:58:15;;;;;;;15.23;4.20;;;;;;;24.37;51.62;98163.06;2085025;28;20431;-49
2023/08/07 03:59:17;;;;;;;25.08;6.68;;;;;;;24.37;52.07;98168.50;2086409;28;20805;-50
2023/08/07 04:00:18;;;;;;;15.23;3.95;;;;;;;24.36;51.73;98164.97;2085921;28;20048;-49
2023/08/07 04:01:20;;;;;;;19.70;3.97;;;;;;;24.32;51.98;98166.53;2086301;28;20136;-51
2023/08/07 04:02:21;;;;;;;10.48;3.53;;;;;;;24.33;51.75;98159.25;2085654;28;20051;-48
2023/08/07 04:03:23;;;;;;;23.92;5.65;;;;;;;24.24;51.94;98159.69;2085414;28;20048;-50
2023/08/07 04:04:24;;;;;;;11.07;3.58;;;;;;;24.24;52.26;98161.56;2083211;28;20048;-50
2023/08/07 04:05:26;;;;;;;13.30;4.45;;;;;;;24.19;52.48;98162.31;2084216;28;20395;-49
2023/08/07 04:06:28;;;;;;;17.33;3.72;;;;;;;24.18;52.20;98160.69;2084523;28;20049;-49
2023/08/07 04:07:30;;;;;;;23.10;4.55;;;;;;;24.20;52.20;98163.94;2084074;28;20056;-50
2023/08/07 04:08:31;;;;;;;9.27;3.60;;;;;;;24.17;52.39;98166.34;2079440;28;20045;-49
2023/08/07 04:09:33;;;;;;;16.40;4.20;;;;;;;24.13;52.35;98174.16;2078305;28;20053;-48
2023/08/07 04:10:34;;;;;;;14.40;4.18;;;;;;;24.08;52.67;98174.09;2085022;28;20517;-51
2023/08/07 04:11:37;;;;;;;17.63;4.07;;;;;;;24.08;52.86;98177.63;2084793;28;20041;-51
2023/08/07 04:12:38;;;;;;;15.95;3.63;;;;;;;24.03;52.81;98177.53;2085969;28;20053;-49
2023/08/07 04:13:40;;;;;;;14.95;4.68;;;;;;;24.01;52.96;98173.44;2086226;28;21373;-51
2023/08/07 04:14:41;;;;;;;18.42;4.95;;;;;;;23.94;53.02;98178.25;2081199;28;20437;-50
2023/08/07 04:15:42;;;;;;;20.15;5.25;;;;;;;23.98;52.96;98179.38;2084274;28;20353;-49
2023/08/07 04:16:43;;;;;;;18.67;4.18;;;;;;;23.97;52.90;98172.31;2086974;28;20060;-50
2023/08/07 04:17:45;;;;;;;21.90;5.28;;;;;;;24.00;52.98;98177.25;2086603;28;20489;-50
2023/08/07 04:18:46;;;;;;;22.55;4.43;;;;;;;23.99;53.15;98181.03;2084169;28;20098;-51
2023/08/07 04:19:48;;;;;;;15.10;4.35;;;;;;;24.04;52.87;98178.38;2087276;28;20131;-50
2023/08/07 04:20:50;;;;;;;19.00;5.25;;;;;;;24.03;53.15;98180.25;2086123;28;20087;-50
2023/08/07 04:21:52;;;;;;;18.65;3.60;;;;;;;24.03;53.10;98179.44;2084727;28;20541;-49
2023/08/07 04:22:52;;;;;;;16.35;3.85;;;;;;;24.03;52.82;98180.25;2083988;28;20180;-49
2023/08/07 04:23:54;;;;;;;23.73;5.32;;;;;;;24.04;52.85;98181.91;2085559;28;20040;-48
2023/08/07 04:24:55;;;;;;;10.90;4.55;;;;;;;24.03;52.84;98187.56;2086347;28;20526;-51
2023/08/07 04:25:57;;;;;;;16.05;3.75;;;;;;;24.03;52.77;98187.56;2086267;28;20053;-50
2023/08/07 04:26:59;;;;;;;18.17;4.90;;;;;;;24.04;52.75;98181.06;2083187;28;20076;-49
2023/08/07 04:28:01;;;;;;;11.00;3.70;;;;;;;24.04;52.89;98181.06;2084666;28;20122;-49
2023/08/07 04:29:02;;;;;;;20.05;4.82;;;;;;;24.04;52.86;98181.06;2082995;28;20127;-50
2023/08/07 04:30:05;;;;;;;19.73;4.13;;;;;;;24.04;52.99;98183.78;2085993;28;20037;-49
2023/08/07 04:31:06;;;;;;;16.10;4.20;;;;;;;23.99;52.70;98186.44;2083354;28;20063;-53
2023/08/07 04:32:08;;;;;;;18.58;3.65;;;;;;;24.01;53.06;98182.38;2084866;28;20075;-47
2023/08/07 04:33:09;;;;;;;14.73;3.92;;;;;;;24.01;52.82;98181.56;2086647;28;20052;-48
2023/08/07 04:34:12;;;;;;;14.40;3.92;;;;;;;24.01;53.09;98187.00;2084044;28;20066;-49
2023/08/07 04:35:13;;;;;;;16.27;5.47;;;;;;;23.98;53.08;98180.19;2084288;28;20049;-49
2023/08/07 04:36:14;;;;;;;14.25;5.82;;;;;;;23.99;52.88;98184.56;2085831;28;20044;-49
2023/08/07 04:37:15;;;;;;;14.15;4.13;;;;;;;24.00;52.75;98182.66;2082729;28;20102;-50
2023/08/07 04:38:17;;;;;;;23.33;5.28;;;;;;;23.98;53.03;98180.19;2084912;28;20440;-48
2023/08/07 04:39:19;;;;;;;14.63;4.60;;;;;;;23.97;53.17;98181.25;2083425;28;20798;-49
2023/08/07 04:40:20;;;;;;;13.23;3.90;;;;;;;23.95;53.03;98177.16;2086029;28;20384;-52
2023/08/07 04:41:22;;;;;;;11.48;3.28;;;;;;;23.93;53.08;98173.88;2085650;28;20059;-51
2023/08/07 04:42:24;;;;;;;11.55;3.58;;;;;;;23.93;53.24;98173.88;2087261;28;20055;-50
2023/08/07 04:43:27;;;;;;;13.60;4.30;;;;;;;23.92;53.16;98174.94;2086227;28;20052;-51
2023/08/07 04:44:28;;;;;;;20.08;6.38;;;;;;;23.92;53.24;98178.47;2084799;28;20123;-50
2023/08/07 04:45:30;;;;;;;17.02;5.03;;;;;;;23.93;53.40;98182.00;2084099;28;20064;-49
2023/08/07 04:46:32;;;;;;;14.15;4.20;;;;;;;23.90;53.24;98172.47;2081184;28;20083;-50
2023/08/07 04:47:34;;;;;;;17.25;5.60;;;;;;;23.86;53.34;98182.19;2086350;28;20358;-51
2023/08/07 04:48:35;;;;;;;20.27;4.35;;;;;;;23.82;53.47;98178.31;2083453;28;20052;-49
2023/08/07 04:49:37;;;;;;;19.20;4.07;;;;;;;23.85;53.68;98177.84;2084078;28;20357;-50